Time;durP1;ratioP1;P1;durP2;ratioP2;P2;SDS_P1;SDS_P2;PMS_P1;PMS_P2;Temp;Humidity;BMP_temperature;BMP_pressure;BME280_temperature;BME280_humidity;BME280_pressure;Samples;Min_cycle;Max_cycle;Signal;HPM_P1;HPM_P2
2022/06/10 00:00:03;;;;;;;8.38;5.20;;;;;;;;;;2082980;28;20214;-54
2022/06/10 00:01:05;;;;;;;6.80;5.40;;;;;;;;;;2082742;28;20199;-53
2022/06/10 00:02:05;;;;;;;7.57;4.70;;;;;;;;;;2082978;28;20180;-54
2022/06/10 00:03:06;;;;;;;6.53;5.03;;;;;;;;;;2082267;28;20184;-55
2022/06/10 00:04:06;;;;;;;6.80;4.72;;;;;;;;;;2081533;28;20184;-54
2022/06/10 00:05:07;;;;;;;5.95;5.30;;;;;;;;;;2082268;28;20172;-57
2022/06/10 00:06:08;;;;;;;8.23;5.10;;;;;;;;;;2082000;28;20223;-54
2022/06/10 00:07:08;;;;;;;5.90;5.43;;;;;;;;;;2082858;28;20247;-52
2022/06/10 00:08:11;;;;;;;5.55;4.60;;;;;;;;;;2082945;28;20645;-55
2022/06/10 00:09:12;;;;;;;8.40;5.47;;;;;;;;;;2082902;28;20168;-53
2022/06/10 00:10:14;;;;;;;7.20;5.28;;;;;;;;;;2082829;28;20164;-53
2022/06/10 00:11:14;;;;;;;7.90;5.32;;;;;;;;;;2082298;28;20231;-54
2022/06/10 00:12:14;;;;;;;7.47;5.97;;;;;;;;;;2082612;28;20230;-55
2022/06/10 00:13:16;;;;;;;5.90;5.22;;;;;;;;;;2082082;28;20681;-55
2022/06/10 00:14:16;;;;;;;6.15;5.28;;;;;;;;;;2081924;28;20645;-53
2022/06/10 00:15:17;;;;;;;5.13;4.65;;;;;;;;;;2082784;28;20164;-51
2022/06/10 00:16:19;;;;;;;11.57;5.35;;;;;;;;;;2082701;28;20678;-53
2022/06/10 00:17:19;;;;;;;6.13;5.40;;;;;;;;;;2074813;28;20247;-58
2022/06/10 00:18:20;;;;;;;7.40;5.25;;;;;;;;;;2074990;28;20181;-54
2022/06/10 00:19:20;;;;;;;6.68;5.28;;;;;;;;;;2082694;28;20645;-55
2022/06/10 00:20:23;;;;;;;5.85;5.25;;;;;;;;;;2082535;28;20195;-56
2022/06/10 00:21:25;;;;;;;7.25;4.95;;;;;;;;;;2082868;28;20200;-53
2022/06/10 00:22:25;;;;;;;8.23;5.65;;;;;;;;;;2082805;28;20183;-55
2022/06/10 00:23:26;;;;;;;6.30;5.80;;;;;;;;;;2082630;28;20212;-54
2022/06/10 00:24:26;;;;;;;7.22;5.18;;;;;;;;;;2082092;28;20164;-56
2022/06/10 00:25:27;;;;;;;7.95;5.72;;;;;;;;;;2082802;28;20199;-56
2022/06/10 00:26:27;;;;;;;6.13;5.47;;;;;;;;;;2082879;28;20191;-53
2022/06/10 00:27:27;;;;;;;8.48;5.80;;;;;;;;;;2082644;28;20164;-54
2022/06/10 00:28:28;;;;;;;6.68;5.82;;;;;;;;;;2081910;28;20207;-56
2022/06/10 00:29:28;;;;;;;8.57;5.60;;;;;;;;;;2082427;28;20172;-52
2022/06/10 00:30:29;;;;;;;6.70;5.32;;;;;;;;;;2082387;28;20271;-54
2022/06/10 00:31:30;;;;;;;9.90;5.90;;;;;;;;;;2082590;28;20172;-54
2022/06/10 00:32:30;;;;;;;6.25;5.65;;;;;;;;;;2080942;28;20261;-56
2022/06/10 00:33:33;;;;;;;6.55;5.85;;;;;;;;;;2082613;28;20231;-55
2022/06/10 00:34:35;;;;;;;7.63;5.22;;;;;;;;;;2081934;28;20168;-55
2022/06/10 00:35:36;;;;;;;8.68;5.97;;;;;;;;;;2082156;28;20192;-52
2022/06/10 00:36:36;;;;;;;7.93;5.65;;;;;;;;;;2082041;28;20251;-53
2022/06/10 00:37:37;;;;;;;6.35;5.45;;;;;;;;;;2082939;28;20180;-55
2022/06/10 00:38:37;;;;;;;9.20;5.53;;;;;;;;;;2082625;28;20199;-51
2022/06/10 00:39:38;;;;;;;7.05;5.95;;;;;;;;;;2082214;28;20172;-53
2022/06/10 00:40:43;;;;;;;10.85;5.85;;;;;;;;;;2081718;28;20283;-55
2022/06/10 00:41:44;;;;;;;6.72;6.03;;;;;;;;;;2082511;28;20195;-53
2022/06/10 00:42:45;;;;;;;8.93;6.10;;;;;;;;;;2082598;28;20180;-54
2022/06/10 00:43:45;;;;;;;6.40;5.63;;;;;;;;;;2082691;28;20239;-56
2022/06/10 00:44:47;;;;;;;9.85;6.10;;;;;;;;;;2081752;28;20611;-52
2022/06/10 00:46:06;;;;;;;6.05;5.55;;;;;;;;;;2082581;28;20164;-52
2022/06/10 00:47:21;;;;;;;8.45;5.45;;;;;;;;;;2082547;28;20630;-55
2022/06/10 00:48:26;;;;;;;6.70;5.88;;;;;;;;;;2082548;28;20168;-56
2022/06/10 00:49:28;;;;;;;9.60;8.07;;;;;;;;;;2081977;28;20172;-55
2022/06/10 00:50:30;;;;;;;9.32;7.15;;;;;;;;;;2081711;28;20204;-54
2022/06/10 00:51:33;;;;;;;7.20;6.50;;;;;;;;;;2083039;28;20176;-54
2022/06/10 00:52:35;;;;;;;9.38;6.75;;;;;;;;;;2082327;28;20180;-53
2022/06/10 00:53:36;;;;;;;7.80;6.85;;;;;;;;;;2081849;28;20255;-51
2022/06/10 00:54:38;;;;;;;9.10;7.38;;;;;;;;;;2072815;28;20581;-54
2022/06/10 00:55:39;;;;;;;9.27;6.35;;;;;;;;;;2081736;28;20653;-54
2022/06/10 00:56:41;;;;;;;9.00;6.60;;;;;;;;;;2081525;28;20208;-55
2022/06/10 00:57:44;;;;;;;7.32;6.65;;;;;;;;;;2082409;28;20180;-55
2022/06/10 00:58:47;;;;;;;8.65;6.40;;;;;;;;;;2073646;28;20173;-54
2022/06/10 01:00:04;;;;;;;6.80;6.20;;;;;;;;;;2073999;28;20180;-55
2022/06/10 01:01:04;;;;;;;7.13;6.22;;;;;;;;;;2082390;28;20172;-56
2022/06/10 01:02:07;;;;;;;9.38;6.32;;;;;;;;;;2082857;28;20211;-55
2022/06/10 01:03:07;;;;;;;6.63;5.93;;;;;;;;;;2081844;28;20192;-53
2022/06/10 01:04:08;;;;;;;8.68;6.20;;;;;;;;;;2081119;28;20188;-57
2022/06/10 01:05:10;;;;;;;8.52;5.95;;;;;;;;;;2082501;28;20195;-56
2022/06/10 01:06:11;;;;;;;9.10;6.25;;;;;;;;;;2082422;28;20177;-57
2022/06/10 01:07:14;;;;;;;9.90;6.40;;;;;;;;;;2082027;28;20631;-56
2022/06/10 01:08:15;;;;;;;7.75;7.00;;;;;;;;;;2081647;28;20176;-56
2022/06/10 01:09:16;;;;;;;7.93;7.22;;;;;;;;;;2082397;28;20185;-56
2022/06/10 01:10:17;;;;;;;8.18;6.70;;;;;;;;;;2082949;28;20198;-52
2022/06/10 01:11:24;;;;;;;9.35;6.68;;;;;;;;;;2083092;28;20176;-51
2022/06/10 01:12:43;;;;;;;10.32;7.28;;;;;;;;;;2082520;28;20222;-52
2022/06/10 01:14:08;;;;;;;10.48;7.10;;;;;;;;;;2081892;28;20172;-52
2022/06/10 01:15:18;;;;;;;7.78;7.00;;;;;;;;;;2082318;28;20622;-55
2022/06/10 01:16:18;;;;;;;11.65;6.68;;;;;;;;;;2082545;28;20157;-52
2022/06/10 01:17:27;;;;;;;7.25;6.65;;;;;;;;;;2082262;28;20259;-54
2022/06/10 01:18:33;;;;;;;8.73;7.15;;;;;;;;;;2082134;28;20200;-53
2022/06/10 01:19:45;;;;;;;7.65;6.82;;;;;;;;;;2081556;28;20270;-52
2022/06/10 01:20:46;;;;;;;8.25;6.45;;;;;;;;;;2074135;28;20187;-53
2022/06/10 01:22:06;;;;;;;11.35;6.72;;;;;;;;;;2076446;28;20176;-52
2022/06/10 01:23:07;;;;;;;8.35;6.35;;;;;;;;;;2081674;28;20211;-51
2022/06/10 01:24:23;;;;;;;7.40;6.68;;;;;;;;;;2080801;28;20251;-51
2022/06/10 01:25:39;;;;;;;7.78;6.63;;;;;;;;;;2081673;28;20190;-54
2022/06/10 01:28:07;;;;;;;7.40;6.43;;;;;;;;;;2082520;28;20187;-55
2022/06/10 01:29:17;;;;;;;11.10;7.30;;;;;;;;;;2084406;28;20203;-54
2022/06/10 01:30:20;;;;;;;7.15;6.38;;;;;;;;;;2082901;28;20184;-55
2022/06/10 01:31:28;;;;;;;12.55;7.18;;;;;;;;;;2085042;28;20539;-53
2022/06/10 01:32:40;;;;;;;9.88;7.32;;;;;;;;;;2083955;28;20263;-52
2022/06/10 01:33:59;;;;;;;9.77;7.30;;;;;;;;;;2085664;28;20555;-52
2022/06/10 01:35:20;;;;;;;8.25;7.20;;;;;;;;;;2082485;28;20582;-53
2022/06/10 01:36:24;;;;;;;10.65;7.88;;;;;;;;;;2079233;28;20204;-55
2022/06/10 01:37:31;;;;;;;9.55;7.90;;;;;;;;;;2082832;28;20172;-52
2022/06/10 01:38:46;;;;;;;8.70;6.97;;;;;;;;;;2083251;28;20206;-56
2022/06/10 01:39:47;;;;;;;8.45;7.60;;;;;;;;;;2083715;28;20178;-55
2022/06/10 01:40:59;;;;;;;11.25;7.85;;;;;;;;;;2085176;28;20180;-52
2022/06/10 01:42:02;;;;;;;7.72;6.90;;;;;;;;;;2084972;28;20171;-53
2022/06/10 01:43:06;;;;;;;12.77;7.65;;;;;;;;;;2083074;28;20188;-54
2022/06/10 01:44:13;;;;;;;13.55;7.00;;;;;;;;;;2082537;28;20168;-53
2022/06/10 01:45:25;;;;;;;8.40;6.82;;;;;;;;;;2082683;28;20755;-53
2022/06/10 01:46:30;;;;;;;8.52;7.57;;;;;;;;;;2082276;28;20160;-52
2022/06/10 01:47:41;;;;;;;8.05;7.22;;;;;;;;;;2081635;28;20168;-54
2022/06/10 01:48:48;;;;;;;8.60;6.88;;;;;;;;;;2081837;28;20230;-54
2022/06/10 01:49:56;;;;;;;7.32;6.70;;;;;;;;;;2082354;28;20156;-55
2022/06/10 01:51:03;;;;;;;8.10;6.95;;;;;;;;;;2081337;28;20271;-56
2022/06/10 01:52:06;;;;;;;7.97;7.18;;;;;;;;;;2082003;28;20224;-55
2022/06/10 01:53:26;;;;;;;8.10;7.40;;;;;;;;;;2082580;28;20207;-55
2022/06/10 01:54:39;;;;;;;8.82;7.18;;;;;;;;;;2081666;28;20159;-55
2022/06/10 01:55:51;;;;;;;8.05;7.35;;;;;;;;;;2082455;28;20172;-53
2022/06/10 01:56:53;;;;;;;8.13;7.28;;;;;;;;;;2082356;28;20180;-54
2022/06/10 01:57:53;;;;;;;7.45;6.60;;;;;;;;;;2082168;28;20168;-55
2022/06/10 01:58:53;;;;;;;8.55;7.40;;;;;;;;;;2081868;28;20278;-56
2022/06/10 02:00:05;;;;;;;7.93;7.10;;;;;;;;;;2082555;28;20534;-54
2022/06/10 02:01:11;;;;;;;8.18;7.03;;;;;;;;;;2081003;28;20216;-55
2022/06/10 02:02:14;;;;;;;8.63;7.38;;;;;;;;;;2081641;28;20171;-54
2022/06/10 02:03:28;;;;;;;8.80;6.93;;;;;;;;;;2081851;28;20572;-55
2022/06/10 02:04:34;;;;;;;7.72;6.63;;;;;;;;;;2081178;28;20163;-52
2022/06/10 02:05:37;;;;;;;9.13;7.45;;;;;;;;;;2082558;28;20195;-53
2022/06/10 02:06:43;;;;;;;11.00;6.88;;;;;;;;;;2081249;28;20345;-52
2022/06/10 02:07:46;;;;;;;7.60;6.60;;;;;;;;;;2081604;28;20148;-51
2022/06/10 02:08:49;;;;;;;7.88;6.65;;;;;;;;;;2082652;28;20172;-52
2022/06/10 02:09:54;;;;;;;7.95;7.13;;;;;;;;;;2082431;28;20250;-52
2022/06/10 02:10:59;;;;;;;10.50;6.95;;;;;;;;;;2083322;28;20183;-52
2022/06/10 02:12:07;;;;;;;7.97;7.28;;;;;;;;;;2082634;28;20180;-55
2022/06/10 02:13:11;;;;;;;7.97;6.57;;;;;;;;;;2082630;28;20196;-53
2022/06/10 02:14:16;;;;;;;8.77;7.85;;;;;;;;;;2082146;28;20704;-53
2022/06/10 02:15:19;;;;;;;9.35;6.95;;;;;;;;;;2082923;28;20172;-55
2022/06/10 02:16:22;;;;;;;9.57;6.72;;;;;;;;;;2082583;28;20178;-55
2022/06/10 02:17:24;;;;;;;12.35;7.55;;;;;;;;;;2082425;28;20269;-53
2022/06/10 02:18:38;;;;;;;9.48;7.03;;;;;;;;;;2081747;28;20275;-54
2022/06/10 02:19:42;;;;;;;9.63;8.00;;;;;;;;;;2080410;28;20195;-52
2022/06/10 02:20:50;;;;;;;8.57;7.68;;;;;;;;;;2082375;28;20164;-54
2022/06/10 02:21:52;;;;;;;13.55;8.25;;;;;;;;;;2082056;28;20184;-51
2022/06/10 02:24:09;;;;;;;8.18;7.38;;;;;;;;;;2071639;28;20208;-55
2022/06/10 02:25:14;;;;;;;9.40;7.97;;;;;;;;;;2080875;28;20168;-54
2022/06/10 02:26:14;;;;;;;8.13;7.35;;;;;;;;;;2080326;28;20259;-54
2022/06/10 02:27:17;;;;;;;8.45;7.65;;;;;;;;;;2081316;28;20239;-59
2022/06/10 02:28:20;;;;;;;8.73;7.82;;;;;;;;;;2080805;28;20184;-53
2022/06/10 02:29:29;;;;;;;10.23;8.35;;;;;;;;;;2079357;28;20177;-52
2022/06/10 02:30:30;;;;;;;15.40;8.65;;;;;;;;;;2080531;28;20160;-56
2022/06/10 02:31:34;;;;;;;9.73;8.88;;;;;;;;;;2080654;28;20242;-55
2022/06/10 02:32:35;;;;;;;11.05;8.15;;;;;;;;;;2080214;28;20548;-54
2022/06/10 02:33:37;;;;;;;9.13;8.07;;;;;;;;;;2081158;28;20219;-55
2022/06/10 02:34:37;;;;;;;9.63;8.75;;;;;;;;;;2088006;28;20175;-53
2022/06/10 02:35:44;;;;;;;11.35;8.55;;;;;;;;;;2080669;28;20546;-58
2022/06/10 02:36:44;;;;;;;9.73;8.82;;;;;;;;;;2080692;28;20172;-54
2022/06/10 02:37:44;;;;;;;10.18;9.27;;;;;;;;;;2080020;28;20533;-54
2022/06/10 02:38:50;;;;;;;10.82;8.82;;;;;;;;;;2081262;28;20183;-52
2022/06/10 02:39:51;;;;;;;10.82;9.02;;;;;;;;;;2081279;28;20263;-55
2022/06/10 02:41:17;;;;;;;10.80;9.70;;;;;;;;;;2080685;28;20192;-52
2022/06/10 02:42:32;;;;;;;12.20;8.93;;;;;;;;;;2079103;28;20202;-55
2022/06/10 02:43:40;;;;;;;12.80;8.88;;;;;;;;;;2080876;28;20200;-53
2022/06/10 02:44:43;;;;;;;13.48;9.65;;;;;;;;;;2077044;28;20160;-56
2022/06/10 02:45:46;;;;;;;11.10;9.95;;;;;;;;;;2081258;28;20178;-52
2022/06/10 02:47:00;;;;;;;12.20;9.50;;;;;;;;;;2081113;28;20203;-52
2022/06/10 02:48:00;;;;;;;12.90;9.85;;;;;;;;;;2081359;28;20160;-53
2022/06/10 02:49:16;;;;;;;10.73;9.07;;;;;;;;;;2081255;28;20254;-54
2022/06/10 02:50:17;;;;;;;13.45;9.75;;;;;;;;;;2081033;28;20259;-53
2022/06/10 02:51:19;;;;;;;10.35;9.35;;;;;;;;;;2081376;28;20177;-53
2022/06/10 02:52:20;;;;;;;11.30;10.20;;;;;;;;;;2080562;28;20199;-53
2022/06/10 02:53:21;;;;;;;10.82;9.55;;;;;;;;;;2081297;28;20208;-55
2022/06/10 02:54:26;;;;;;;11.68;10.60;;;;;;;;;;2080232;28;20232;-53
2022/06/10 02:55:27;;;;;;;12.18;10.38;;;;;;;;;;2081329;28;20183;-59
2022/06/10 02:56:28;;;;;;;12.27;10.88;;;;;;;;;;2081143;28;20255;-53
2022/06/10 03:01:33;;;;;;;18.50;11.00;;;;;;;;;;2083804;28;20306;-53
2022/06/10 03:02:33;;;;;;;11.13;9.75;;;;;;;;;;2082565;28;20644;-58
2022/06/10 03:03:57;;;;;;;11.73;10.70;;;;;;;;;;2082054;28;20196;-56
2022/06/10 03:05:01;;;;;;;13.32;11.20;;;;;;;;;;2075029;28;20180;-55
2022/06/10 03:06:10;;;;;;;12.32;11.07;;;;;;;;;;2075413;28;20256;-53
2022/06/10 03:07:13;;;;;;;14.43;11.02;;;;;;;;;;2074164;28;20177;-56
2022/06/10 03:08:14;;;;;;;11.43;10.35;;;;;;;;;;2074119;28;20157;-57
2022/06/10 03:09:20;;;;;;;14.15;11.05;;;;;;;;;;2080868;28;20262;-58
2022/06/10 03:10:24;;;;;;;11.77;10.68;;;;;;;;;;2082864;28;20164;-55
2022/06/10 03:11:28;;;;;;;14.07;11.02;;;;;;;;;;2083651;28;20184;-54
2022/06/10 03:12:31;;;;;;;14.32;11.48;;;;;;;;;;2082993;28;20641;-56
2022/06/10 03:13:43;;;;;;;11.93;10.82;;;;;;;;;;2083107;28;20204;-56
2022/06/10 03:14:51;;;;;;;12.05;10.85;;;;;;;;;;2082996;28;20180;-55
2022/06/10 03:15:55;;;;;;;17.25;12.32;;;;;;;;;;2084180;28;20156;-57
2022/06/10 03:16:56;;;;;;;15.25;11.50;;;;;;;;;;2084239;28;20172;-54
2022/06/10 03:18:03;;;;;;;13.35;11.95;;;;;;;;;;2084194;28;20247;-57
2022/06/10 03:19:19;;;;;;;12.75;11.40;;;;;;;;;;2083754;28;20172;-53
2022/06/10 03:20:38;;;;;;;15.90;11.32;;;;;;;;;;2082894;28;20179;-56
2022/06/10 03:21:39;;;;;;;17.27;11.55;;;;;;;;;;2080968;28;20207;-53
2022/06/10 03:22:50;;;;;;;16.73;11.45;;;;;;;;;;2081004;28;20164;-53
2022/06/10 03:24:03;;;;;;;13.32;11.93;;;;;;;;;;2080738;28;20676;-58
2022/06/10 03:25:03;;;;;;;12.80;11.00;;;;;;;;;;2081183;28;20156;-57
2022/06/10 03:26:06;;;;;;;12.40;10.75;;;;;;;;;;2081028;28;20751;-56
2022/06/10 03:27:06;;;;;;;13.77;11.27;;;;;;;;;;2080936;28;20230;-56
2022/06/10 03:28:12;;;;;;;12.80;10.77;;;;;;;;;;2081223;28;20179;-54
2022/06/10 03:29:18;;;;;;;17.88;11.80;;;;;;;;;;2081105;28;20195;-55
2022/06/10 03:30:21;;;;;;;15.63;10.52;;;;;;;;;;2081004;28;20750;-52
2022/06/10 03:31:50;;;;;;;11.40;9.98;;;;;;;;;;2080420;28;20215;-53
2022/06/10 03:32:56;;;;;;;20.52;10.68;;;;;;;;;;2064572;28;20196;-53
2022/06/10 03:34:09;;;;;;;15.95;11.70;;;;;;;;;;2080555;28;20235;-59
2022/06/10 03:35:22;;;;;;;12.30;10.88;;;;;;;;;;2081198;28;20715;-56
2022/06/10 03:36:25;;;;;;;11.10;9.90;;;;;;;;;;2080461;28;20176;-52
2022/06/10 03:37:26;;;;;;;12.80;11.00;;;;;;;;;;2080275;28;20196;-51
2022/06/10 03:38:27;;;;;;;10.77;9.02;;;;;;;;;;2081091;28;20172;-53
2022/06/10 03:39:27;;;;;;;11.18;10.00;;;;;;;;;;2081381;28;20204;-57
2022/06/10 03:40:28;;;;;;;12.55;10.40;;;;;;;;;;2081205;28;20172;-52
2022/06/10 03:41:32;;;;;;;11.75;10.55;;;;;;;;;;2081342;28;20250;-54
2022/06/10 03:42:32;;;;;;;11.90;10.63;;;;;;;;;;2080659;28;20688;-54
2022/06/10 03:43:34;;;;;;;11.85;10.60;;;;;;;;;;2081065;28;20263;-53
2022/06/10 03:44:35;;;;;;;15.40;10.95;;;;;;;;;;2080294;28;20180;-57
2022/06/10 03:45:38;;;;;;;12.40;10.95;;;;;;;;;;2081306;28;20168;-55
2022/06/10 03:46:39;;;;;;;16.33;10.60;;;;;;;;;;2081011;28;20177;-50
2022/06/10 03:47:39;;;;;;;11.60;10.50;;;;;;;;;;2081126;28;20647;-52
2022/06/10 03:48:42;;;;;;;15.25;10.55;;;;;;;;;;2080473;28;20250;-56
2022/06/10 03:50:06;;;;;;;11.50;10.30;;;;;;;;;;2080688;28;20255;-56
2022/06/10 03:51:07;;;;;;;11.63;10.20;;;;;;;;;;2067556;28;20200;-54
2022/06/10 03:52:08;;;;;;;13.45;10.75;;;;;;;;;;2080351;28;20223;-54
2022/06/10 03:53:13;;;;;;;13.45;11.50;;;;;;;;;;2072836;28;20334;-53
2022/06/10 03:54:17;;;;;;;12.73;11.45;;;;;;;;;;2072163;28;20623;-56
2022/06/10 03:55:18;;;;;;;13.23;10.95;;;;;;;;;;2073115;28;20192;-51
2022/06/10 03:56:22;;;;;;;13.88;11.00;;;;;;;;;;2072051;28;20216;-53
2022/06/10 03:57:22;;;;;;;14.93;11.02;;;;;;;;;;2074608;28;20219;-55
2022/06/10 03:58:23;;;;;;;13.45;10.63;;;;;;;;;;2080974;28;20173;-55
2022/06/10 03:59:23;;;;;;;11.65;10.05;;;;;;;;;;2081101;28;20648;-56
2022/06/10 04:00:25;;;;;;;12.50;11.25;;;;;;;;;;2081016;28;20176;-56
2022/06/10 04:01:25;;;;;;;11.02;9.90;;;;;;;;;;2080824;28;20207;-55
2022/06/10 04:02:26;;;;;;;11.85;10.15;;;;;;;;;;2081104;28;20180;-55
2022/06/10 04:03:26;;;;;;;11.68;9.50;;;;;;;;;;2081954;28;20204;-53
2022/06/10 04:04:26;;;;;;;10.90;9.93;;;;;;;;;;2081781;28;20303;-50
2022/06/10 04:05:27;;;;;;;12.23;10.65;;;;;;;;;;2082629;28;20196;-53
2022/06/10 04:06:27;;;;;;;12.32;10.90;;;;;;;;;;2082560;28;20203;-57
2022/06/10 04:07:28;;;;;;;13.73;11.10;;;;;;;;;;2081874;28;20195;-55
2022/06/10 04:08:28;;;;;;;15.52;11.35;;;;;;;;;;2081910;28;20172;-57
2022/06/10 04:09:28;;;;;;;13.32;11.65;;;;;;;;;;2081812;28;20191;-56
2022/06/10 04:10:30;;;;;;;14.75;11.13;;;;;;;;;;2077929;28;20180;-54
2022/06/10 04:11:30;;;;;;;14.23;11.55;;;;;;;;;;2074450;28;20340;-59
2022/06/10 04:12:30;;;;;;;14.73;12.25;;;;;;;;;;2077526;28;20795;-55
2022/06/10 04:13:31;;;;;;;14.88;11.55;;;;;;;;;;2082511;28;20197;-56
2022/06/10 04:14:31;;;;;;;15.85;12.18;;;;;;;;;;2081754;28;20662;-58
2022/06/10 04:15:32;;;;;;;12.43;11.23;;;;;;;;;;2082145;28;20220;-53
2022/06/10 04:16:33;;;;;;;11.52;10.43;;;;;;;;;;2082649;28;20180;-54
2022/06/10 04:17:33;;;;;;;13.57;11.65;;;;;;;;;;2082168;28;20550;-52
2022/06/10 04:18:34;;;;;;;12.75;11.50;;;;;;;;;;2083180;28;20268;-60
2022/06/10 04:19:34;;;;;;;15.80;12.15;;;;;;;;;;2083277;28;20645;-59
2022/06/10 04:20:36;;;;;;;12.20;11.00;;;;;;;;;;2083883;28;20192;-57
2022/06/10 04:21:36;;;;;;;12.40;11.20;;;;;;;;;;2082744;28;20211;-57
2022/06/10 04:22:37;;;;;;;18.95;13.20;;;;;;;;;;2081834;28;20251;-56
2022/06/10 04:23:37;;;;;;;14.48;13.10;;;;;;;;;;2081760;28;20239;-56
2022/06/10 04:24:38;;;;;;;15.27;12.52;;;;;;;;;;2081855;28;20160;-59
2022/06/10 04:25:39;;;;;;;14.15;12.75;;;;;;;;;;2082430;28;20251;-55
2022/06/10 04:26:39;;;;;;;14.27;12.77;;;;;;;;;;2082575;28;20164;-57
2022/06/10 04:27:39;;;;;;;14.52;13.00;;;;;;;;;;2082205;28;20651;-53
2022/06/10 04:28:40;;;;;;;14.65;13.07;;;;;;;;;;2082349;28;20172;-56
2022/06/10 04:29:40;;;;;;;14.48;13.18;;;;;;;;;;2082640;28;20160;-56
2022/06/10 04:30:43;;;;;;;13.02;11.82;;;;;;;;;;2082247;28;20183;-55
2022/06/10 04:31:43;;;;;;;15.88;14.38;;;;;;;;;;2081386;28;20169;-52
2022/06/10 04:32:44;;;;;;;14.25;13.00;;;;;;;;;;2082163;28;20663;-54
2022/06/10 04:33:44;;;;;;;17.45;14.13;;;;;;;;;;2082073;28;20554;-53
2022/06/10 04:34:44;;;;;;;14.90;13.52;;;;;;;;;;2081180;28;20234;-57
2022/06/10 04:35:46;;;;;;;14.75;12.38;;;;;;;;;;2082360;28;20227;-56
2022/06/10 04:36:46;;;;;;;16.08;14.27;;;;;;;;;;2082440;28;20176;-58
2022/06/10 04:37:48;;;;;;;14.57;13.07;;;;;;;;;;2082077;28;20225;-58
2022/06/10 04:38:48;;;;;;;13.98;12.65;;;;;;;;;;2082376;28;20194;-55
2022/06/10 04:39:49;;;;;;;14.32;12.55;;;;;;;;;;2082503;28;20192;-55
2022/06/10 04:40:49;;;;;;;15.35;13.90;;;;;;;;;;2082056;28;20196;-56
2022/06/10 04:41:49;;;;;;;16.75;14.85;;;;;;;;;;2082284;28;20283;-54
2022/06/10 04:42:50;;;;;;;16.55;15.00;;;;;;;;;;2081841;28;20187;-52
2022/06/10 04:43:50;;;;;;;15.45;13.75;;;;;;;;;;2082426;28;20195;-52
2022/06/10 04:44:51;;;;;;;16.35;14.65;;;;;;;;;;2081345;28;20164;-54
2022/06/10 04:45:52;;;;;;;19.25;14.82;;;;;;;;;;2082259;28;20540;-52
2022/06/10 04:46:53;;;;;;;15.90;14.13;;;;;;;;;;2082365;28;20247;-59
2022/06/10 04:47:54;;;;;;;14.55;13.07;;;;;;;;;;2082511;28;20177;-52
2022/06/10 04:48:55;;;;;;;15.77;14.07;;;;;;;;;;2082321;28;20219;-55
2022/06/10 04:49:59;;;;;;;15.95;14.38;;;;;;;;;;2081613;28;20266;-55
2022/06/10 04:51:00;;;;;;;15.77;13.85;;;;;;;;;;2081993;28;20164;-55
2022/06/10 04:52:01;;;;;;;19.23;14.30;;;;;;;;;;2082573;28;20171;-57
2022/06/10 04:53:01;;;;;;;16.65;15.05;;;;;;;;;;2082464;28;20522;-54
2022/06/10 04:54:03;;;;;;;17.15;14.57;;;;;;;;;;2081786;28;20192;-53
2022/06/10 04:55:05;;;;;;;16.00;14.30;;;;;;;;;;2081811;28;20169;-52
2022/06/10 04:56:05;;;;;;;16.45;14.93;;;;;;;;;;2082886;28;20171;-59
2022/06/10 04:57:06;;;;;;;15.07;13.55;;;;;;;;;;2083417;28;20191;-56
2022/06/10 04:58:06;;;;;;;16.58;14.90;;;;;;;;;;2083400;28;20156;-56
2022/06/10 04:59:07;;;;;;;17.27;15.00;;;;;;;;;;2077023;28;20546;-56
2022/06/10 05:00:09;;;;;;;17.52;15.70;;;;;;;;;;2077514;28;20220;-57
2022/06/10 05:01:09;;;;;;;17.80;15.90;;;;;;;;;;2081771;28;20636;-55
2022/06/10 05:02:09;;;;;;;18.55;14.75;;;;;;;;;;2082379;28;20258;-56
2022/06/10 05:03:12;;;;;;;20.50;15.10;;;;;;;;;;2081198;28;20250;-57
2022/06/10 05:04:13;;;;;;;18.67;14.32;;;;;;;;;;2080734;28;20172;-57
2022/06/10 05:05:13;;;;;;;17.90;14.23;;;;;;;;;;2082287;28;20172;-52
2022/06/10 05:06:13;;;;;;;17.05;15.25;;;;;;;;;;2082088;28;20172;-54
2022/06/10 05:07:14;;;;;;;17.27;15.63;;;;;;;;;;2082111;28;20687;-53
2022/06/10 05:08:15;;;;;;;17.05;15.57;;;;;;;;;;2081448;28;20168;-56
2022/06/10 05:09:15;;;;;;;18.52;15.60;;;;;;;;;;2081193;28;20283;-57
2022/06/10 05:10:16;;;;;;;16.75;14.48;;;;;;;;;;2079815;28;20169;-54
2022/06/10 05:11:17;;;;;;;16.35;14.77;;;;;;;;;;2074112;28;20542;-59
2022/06/10 05:12:17;;;;;;;16.08;14.40;;;;;;;;;;2073138;28;20181;-53
2022/06/10 05:13:20;;;;;;;16.75;14.43;;;;;;;;;;2073285;28;20304;-55
2022/06/10 05:14:21;;;;;;;16.58;14.88;;;;;;;;;;2073021;28;20280;-52
2022/06/10 05:15:22;;;;;;;17.40;15.63;;;;;;;;;;2073337;28;20645;-54
2022/06/10 05:16:23;;;;;;;16.38;14.77;;;;;;;;;;2073687;28;20185;-51
2022/06/10 05:17:23;;;;;;;16.40;14.85;;;;;;;;;;2073868;28;20215;-57
2022/06/10 05:18:24;;;;;;;17.08;15.20;;;;;;;;;;2083863;28;20175;-54
2022/06/10 05:19:24;;;;;;;17.20;15.55;;;;;;;;;;2080359;28;20282;-53
2022/06/10 05:20:33;;;;;;;17.42;15.68;;;;;;;;;;2081195;28;20200;-52
2022/06/10 05:21:33;;;;;;;16.77;15.20;;;;;;;;;;2081096;28;20212;-52
2022/06/10 05:22:33;;;;;;;17.55;15.85;;;;;;;;;;2081125;28;20169;-54
2022/06/10 05:23:33;;;;;;;16.52;14.85;;;;;;;;;;2081694;28;20680;-55
2022/06/10 05:24:34;;;;;;;16.60;14.93;;;;;;;;;;2080777;28;20180;-55
2022/06/10 05:25:35;;;;;;;16.92;14.35;;;;;;;;;;2081912;28;20196;-54
2022/06/10 05:26:35;;;;;;;17.25;15.55;;;;;;;;;;2080994;28;20191;-53
2022/06/10 05:27:35;;;;;;;16.80;15.07;;;;;;;;;;2080827;28;20283;-56
2022/06/10 05:28:35;;;;;;;16.17;14.48;;;;;;;;;;2081732;28;20190;-54
2022/06/10 05:29:36;;;;;;;16.58;14.93;;;;;;;;;;2081611;28;20176;-56
2022/06/10 05:30:36;;;;;;;17.33;15.38;;;;;;;;;;2081595;28;20168;-57
2022/06/10 05:31:37;;;;;;;16.30;14.70;;;;;;;;;;2081784;28;20180;-50
2022/06/10 05:32:37;;;;;;;16.05;14.32;;;;;;;;;;2081645;28;20195;-53
2022/06/10 05:34:56;;;;;;;17.15;14.65;;;;;;;;;;2081266;28;20157;-56
2022/06/10 05:35:57;;;;;;;16.75;14.50;;;;;;;;;;2081770;28;20313;-53
2022/06/10 05:36:57;;;;;;;15.85;14.25;;;;;;;;;;2081806;28;20634;-54
2022/06/10 05:37:58;;;;;;;15.52;14.00;;;;;;;;;;2080972;28;20172;-52
2022/06/10 05:38:59;;;;;;;13.98;12.52;;;;;;;;;;2080973;28;20191;-55
2022/06/10 05:40:00;;;;;;;14.63;12.95;;;;;;;;;;2081983;28;20509;-55
2022/06/10 05:42:04;;;;;;;15.45;13.70;;;;;;;;;;2080977;28;20183;-55
2022/06/10 05:42:21;;;;;;;16.38;12.32;;;;;;;;;;2081636;28;20164;-55
2022/06/10 05:43:21;;;;;;;14.65;12.00;;;;;;;;;;2081849;28;20169;-55
2022/06/10 05:44:22;;;;;;;14.75;11.85;;;;;;;;;;2080899;28;20172;-60
2022/06/10 05:45:23;;;;;;;13.07;11.77;;;;;;;;;;2081279;28;20583;-54
2022/06/10 05:46:23;;;;;;;12.48;11.20;;;;;;;;;;2081136;28;20184;-48
2022/06/10 05:47:25;;;;;;;13.10;11.75;;;;;;;;;;2081419;28;20171;-58
2022/06/10 05:48:26;;;;;;;14.15;11.35;;;;;;;;;;2081762;28;20168;-52
2022/06/10 05:49:26;;;;;;;13.55;12.10;;;;;;;;;;2081374;28;20788;-55
2022/06/10 05:50:28;;;;;;;14.52;12.32;;;;;;;;;;2081418;28;20180;-56
2022/06/10 05:51:29;;;;;;;14.63;12.40;;;;;;;;;;2081018;28;20184;-50
2022/06/10 05:52:30;;;;;;;13.27;11.85;;;;;;;;;;2081479;28;20222;-60
2022/06/10 05:53:31;;;;;;;13.18;11.88;;;;;;;;;;2080886;28;20196;-54
2022/06/10 05:54:32;;;;;;;13.52;12.25;;;;;;;;;;2080701;28;20661;-57
2022/06/10 05:55:33;;;;;;;16.08;13.15;;;;;;;;;;2080264;28;20176;-56
2022/06/10 05:56:33;;;;;;;14.35;12.30;;;;;;;;;;2081027;28;20202;-55
2022/06/10 05:57:34;;;;;;;13.98;12.43;;;;;;;;;;2080634;28;20168;-60
2022/06/10 05:58:34;;;;;;;15.88;13.48;;;;;;;;;;2080964;28;20183;-56
2022/06/10 05:59:34;;;;;;;14.18;12.90;;;;;;;;;;2081289;28;20703;-55
2022/06/10 06:00:35;;;;;;;13.82;12.43;;;;;;;;;;2081163;28;20551;-50
2022/06/10 06:01:36;;;;;;;14.73;13.20;;;;;;;;;;2080382;28;20712;-52
2022/06/10 06:02:36;;;;;;;15.88;12.75;;;;;;;;;;2080585;28;20238;-60
2022/06/10 06:03:37;;;;;;;15.50;12.75;;;;;;;;;;2080861;28;20275;-57
2022/06/10 06:04:37;;;;;;;14.70;13.18;;;;;;;;;;2080290;28;20218;-64
2022/06/10 06:05:38;;;;;;;14.02;12.60;;;;;;;;;;2081048;28;20605;-64
2022/06/10 06:06:39;;;;;;;18.50;13.43;;;;;;;;;;2081119;28;20168;-67
2022/06/10 06:07:40;;;;;;;14.80;13.00;;;;;;;;;;2078326;28;20169;-55
2022/06/10 06:08:40;;;;;;;14.95;12.73;;;;;;;;;;2073580;28;20177;-56
2022/06/10 06:09:41;;;;;;;16.05;12.77;;;;;;;;;;2076116;28;20187;-55
2022/06/10 06:10:41;;;;;;;15.57;13.20;;;;;;;;;;2075655;28;20629;-57
2022/06/10 06:11:41;;;;;;;15.38;12.85;;;;;;;;;;2075783;28;20184;-51
2022/06/10 06:12:42;;;;;;;13.45;12.05;;;;;;;;;;2078100;28;20216;-56
2022/06/10 06:13:42;;;;;;;13.93;11.57;;;;;;;;;;2076494;28;20193;-55
2022/06/10 06:14:43;;;;;;;13.93;12.57;;;;;;;;;;2077328;28;20226;-54
2022/06/10 06:15:43;;;;;;;17.65;12.30;;;;;;;;;;2076134;28;20679;-56
2022/06/10 06:16:50;;;;;;;14.30;12.85;;;;;;;;;;2077376;28;20176;-51
2022/06/10 06:17:51;;;;;;;15.32;12.73;;;;;;;;;;2076809;28;20276;-52
2022/06/10 06:18:52;;;;;;;13.95;11.95;;;;;;;;;;2076187;28;20173;-58
2022/06/10 06:19:52;;;;;;;16.17;13.13;;;;;;;;;;2076358;28;20181;-55
2022/06/10 06:20:53;;;;;;;15.45;12.00;;;;;;;;;;2078616;28;20202;-56